Time;durP1;ratioP1;P1;durP2;ratioP2;P2;SDS_P1;SDS_P2;PMS_P1;PMS_P2;Temp;Humidity;BMP_temperature;BMP_pressure;BME280_temperature;BME280_humidity;BME280_pressure;Samples;Min_cycle;Max_cycle;Signal;HPM_P1;HPM_P2
2022/05/22 00:01:52;;;;;;;6.60;2.23;;;;;;;10.84;100.00;102001.03;4997521;28;20494;-77
2022/05/22 00:04:17;;;;;;;5.30;2.30;;;;;;;10.98;100.00;101941.25;4995741;28;20443;-77
2022/05/22 00:06:42;;;;;;;8.60;2.07;;;;;;;11.36;100.00;102007.72;4995627;28;20186;-78
2022/05/22 00:09:08;;;;;;;7.70;2.03;;;;;;;11.49;100.00;102046.44;4992553;28;20186;-77
2022/05/22 00:11:33;;;;;;;7.10;2.10;;;;;;;11.24;100.00;102037.63;4995500;28;20265;-77
2022/05/22 00:13:59;;;;;;;6.80;2.00;;;;;;;10.28;100.00;101895.53;4992705;28;20181;-76
2022/05/22 00:16:36;;;;;;;6.83;2.13;;;;;;;9.49;100.00;101737.22;4995654;28;20186;-78
2022/05/22 00:19:06;;;;;;;4.70;1.77;;;;;;;10.96;100.00;101942.44;4995468;28;20664;-77
2022/05/22 00:21:31;;;;;;;7.23;2.37;;;;;;;10.79;100.00;101914.81;4992593;28;20507;-78
2022/05/22 00:23:57;;;;;;;7.27;2.13;;;;;;;10.89;100.00;101885.94;4995400;28;20555;-78
2022/05/22 00:26:22;;;;;;;5.50;1.90;;;;;;;10.69;100.00;101896.25;4995741;28;22883;-77
2022/05/22 00:28:48;;;;;;;8.00;1.90;;;;;;;10.98;100.00;101973.47;4993196;28;20194;-77
2022/05/22 00:31:13;;;;;;;6.20;1.90;;;;;;;11.04;100.00;101999.63;4998897;28;20212;-78
2022/05/22 00:33:39;;;;;;;6.67;2.10;;;;;;;11.33;100.00;102038.44;4998199;28;20499;-77
2022/05/22 00:36:06;;;;;;;4.07;1.83;;;;;;;10.77;100.00;101949.91;4995155;28;20189;-77
2022/05/22 00:38:32;;;;;;;6.60;2.70;;;;;;;11.17;100.00;101974.06;4992376;28;20204;-77
2022/05/22 00:40:57;;;;;;;5.53;2.20;;;;;;;11.47;100.00;102013.53;5011540;28;20931;-77
2022/05/22 00:43:33;;;;;;;7.57;3.00;;;;;;;10.92;100.00;101978.69;5000481;28;20444;-77
2022/05/22 00:46:00;;;;;;;6.20;2.47;;;;;;;11.07;100.00;101998.44;5008261;28;20195;-77
2022/05/22 00:48:27;;;;;;;6.90;2.30;;;;;;;11.28;100.00;102035.44;4995319;28;20459;-77
2022/05/22 00:50:59;;;;;;;7.93;2.37;;;;;;;11.23;100.00;102035.16;4996760;28;20480;-77
2022/05/22 00:53:26;;;;;;;6.47;2.40;;;;;;;11.17;100.00;102036.69;5000543;28;20551;-76
2022/05/22 00:55:52;;;;;;;6.00;2.60;;;;;;;10.99;100.00;102019.94;4993518;28;20440;-77
2022/05/22 00:58:22;;;;;;;7.53;2.47;;;;;;;11.17;100.00;102009.81;4994785;28;21131;-77
2022/05/22 01:00:48;;;;;;;7.50;2.10;;;;;;;11.11;100.00;101991.72;4993298;28;20205;-76
2022/05/22 01:03:29;;;;;;;4.07;1.80;;;;;;;10.75;100.00;101922.38;4993562;28;20996;-77
2022/05/22 01:06:10;;;;;;;9.13;2.83;;;;;;;10.89;100.00;101960.25;4994583;28;20503;-77
2022/05/22 01:08:39;;;;;;;4.03;1.83;;;;;;;11.01;100.00;102017.94;4992743;28;20458;-76
2022/05/22 01:11:08;;;;;;;9.03;2.70;;;;;;;10.74;100.00;101973.56;4996290;28;20522;-77
2022/05/22 01:13:38;;;;;;;9.27;2.23;;;;;;;11.00;100.00;102032.38;4993302;28;20512;-76
2022/05/22 01:16:05;;;;;;;3.37;1.87;;;;;;;9.95;100.00;101863.38;4996951;28;20451;-77
2022/05/22 01:18:40;;;;;;;5.17;2.20;;;;;;;10.40;100.00;101892.31;4997039;28;20921;-79
2022/05/22 01:21:12;;;;;;;6.97;2.10;;;;;;;10.44;100.00;101916.94;4997888;28;20549;-78
2022/05/22 01:23:38;;;;;;;8.80;2.43;;;;;;;10.45;100.00;101913.28;4999944;28;20498;-77
2022/05/22 01:26:03;;;;;;;4.47;1.93;;;;;;;10.51;100.00;101904.53;4998600;28;20523;-78
2022/05/22 01:28:28;;;;;;;5.83;1.90;;;;;;;10.59;100.00;101887.59;4995156;28;20220;-77
2022/05/22 01:30:54;;;;;;;7.30;2.43;;;;;;;10.35;100.00;101888.47;4994687;28;20209;-77
2022/05/22 01:33:19;;;;;;;3.20;1.83;;;;;;;9.72;100.00;101770.31;4996415;28;20275;-77
2022/05/22 01:35:45;;;;;;;4.50;2.17;;;;;;;10.81;100.00;101926.22;4997506;28;20187;-77
2022/05/22 01:38:10;;;;;;;4.67;2.00;;;;;;;10.63;100.00;101943.38;5003039;28;20185;-76
2022/05/22 01:40:36;;;;;;;6.13;1.80;;;;;;;10.82;100.00;101927.91;4999249;28;20232;-78
2022/05/22 01:43:01;;;;;;;8.50;2.17;;;;;;;10.55;100.00;101921.13;5004267;28;20288;-77
2022/05/22 01:45:27;;;;;;;5.63;2.40;;;;;;;11.24;100.00;102026.91;5002090;28;20198;-77
2022/05/22 01:47:53;;;;;;;5.00;2.30;;;;;;;11.33;100.00;102054.56;4999817;28;20193;-79
2022/05/22 01:50:21;;;;;;;6.67;2.10;;;;;;;10.67;100.00;101941.19;5003772;28;21081;-80
2022/05/22 01:52:46;;;;;;;6.70;2.50;;;;;;;11.36;100.00;102035.41;4999574;28;20471;-78
2022/05/22 01:55:12;;;;;;;5.50;1.87;;;;;;;11.06;100.00;102015.56;5004480;28;20446;-79
2022/05/22 01:57:38;;;;;;;6.03;1.97;;;;;;;10.18;100.00;101866.19;5000816;28;20336;-79
2022/05/22 02:00:06;;;;;;;8.33;2.53;;;;;;;10.27;100.00;101905.44;4997913;28;20223;-79
2022/05/22 02:02:31;;;;;;;6.43;1.70;;;;;;;10.76;100.00;101993.00;4999772;28;20436;-78
2022/05/22 02:04:57;;;;;;;6.60;1.80;;;;;;;11.17;100.00;102028.63;4997791;28;20450;-81
2022/05/22 02:10:08;;;;;;;8.20;2.37;;;;;;;11.08;100.00;102035.03;5001557;28;21108;-79
2022/05/22 02:12:34;;;;;;;7.93;2.40;;;;;;;10.96;100.00;101988.06;4998975;28;20526;-79
2022/05/22 02:14:59;;;;;;;7.40;2.30;;;;;;;10.45;100.00;101928.53;5002804;28;20448;-79
2022/05/22 02:17:24;;;;;;;9.40;2.17;;;;;;;9.04;100.00;101725.19;4997408;28;20460;-79
2022/05/22 02:19:50;;;;;;;7.17;2.13;;;;;;;10.10;100.00;101888.50;5001486;28;20203;-80
2022/05/22 02:22:15;;;;;;;7.80;1.97;;;;;;;10.52;100.00;101940.22;4997434;28;20197;-81
2022/05/22 02:24:41;;;;;;;6.50;1.70;;;;;;;8.91;100.00;101688.22;5003242;28;20600;-82
2022/05/22 02:27:07;;;;;;;7.60;1.97;;;;;;;10.94;100.00;102070.66;4998331;28;20217;-81
2022/05/22 02:29:34;;;;;;;8.63;1.90;;;;;;;9.35;100.00;101764.69;5001731;28;20193;-79
2022/05/22 02:31:59;;;;;;;8.07;2.30;;;;;;;10.47;100.00;101921.13;5001561;28;20988;-78
2022/05/22 02:34:25;;;;;;;10.83;2.40;;;;;;;10.09;100.00;101873.41;5001169;28;21081;-78
2022/05/22 02:36:50;;;;;;;8.83;2.13;;;;;;;10.01;100.00;101885.97;4999760;28;20256;-79
2022/05/22 02:39:18;;;;;;;7.80;2.30;;;;;;;9.87;100.00;101877.66;5000631;28;20196;-78
2022/05/22 02:41:44;;;;;;;3.30;1.57;;;;;;;10.70;100.00;101965.00;4996812;28;20235;-80
2022/05/22 02:44:09;;;;;;;6.93;2.27;;;;;;;9.69;100.00;101808.16;4998275;28;20597;-78
2022/05/22 02:46:35;;;;;;;5.93;1.93;;;;;;;10.05;100.00;101882.81;5000585;28;20193;-80
2022/05/22 02:49:00;;;;;;;8.53;2.90;;;;;;;9.84;100.00;101861.06;4999489;28;20590;-78
2022/05/22 02:51:26;;;;;;;5.03;1.87;;;;;;;10.09;100.00;101873.41;5001618;28;20698;-80
2022/05/22 02:53:51;;;;;;;6.83;1.93;;;;;;;9.84;100.00;101827.06;5002910;28;20181;-79
2022/05/22 02:56:19;;;;;;;5.10;2.00;;;;;;;10.84;100.00;101999.16;5002068;28;20440;-80
2022/05/22 02:58:45;;;;;;;6.00;2.50;;;;;;;10.40;100.00;101912.94;4996166;28;20196;-80
2022/05/22 03:01:11;;;;;;;7.80;2.43;;;;;;;8.88;100.00;101671.66;4998610;28;20810;-80
2022/05/22 03:03:36;;;;;;;5.10;2.20;;;;;;;10.66;100.00;101990.50;5001358;28;20182;-81
2022/05/22 03:08:46;;;;;;;7.37;2.60;;;;;;;8.97;100.00;101758.97;5004494;28;20215;-81
2022/05/22 03:11:12;;;;;;;9.60;2.40;;;;;;;9.62;100.00;101812.50;5003394;28;20559;-82
2022/05/22 03:13:37;;;;;;;11.90;2.80;;;;;;;10.76;100.00;102001.03;5011096;28;20216;-79
2022/05/22 03:16:03;;;;;;;6.30;2.30;;;;;;;9.35;100.00;101762.00;5013080;28;20231;-79
2022/05/22 03:18:29;;;;;;;8.20;2.83;;;;;;;9.57;100.00;101812.16;5013199;28;20177;-79
2022/05/22 03:20:54;;;;;;;8.30;2.80;;;;;;;9.05;100.00;101750.94;5011374;28;20471;-81
2022/05/22 03:23:20;;;;;;;5.90;2.80;;;;;;;8.82;100.00;101692.75;5015861;28;20551;-79
2022/05/22 03:25:48;;;;;;;9.00;3.00;;;;;;;9.03;100.00;101737.72;5015779;28;20662;-79
2022/05/22 03:28:16;;;;;;;4.43;2.40;;;;;;;10.24;100.00;101931.69;5015838;28;20256;-79
2022/05/22 03:30:41;;;;;;;6.07;2.67;;;;;;;9.28;100.00;101784.06;5009576;28;20475;-79
2022/05/22 03:33:07;;;;;;;5.13;3.13;;;;;;;8.92;100.00;101687.22;5017214;28;20472;-81
2022/05/22 03:35:33;;;;;;;7.57;3.13;;;;;;;9.62;100.00;101827.75;5009433;28;20189;-80
2022/05/22 03:37:59;;;;;;;6.40;2.80;;;;;;;9.15;100.00;101727.53;5017296;28;20450;-81
2022/05/22 03:42:59;;;;;;;6.60;2.90;;;;;;;10.93;100.00;101957.03;4984792;28;20229;-83
2022/05/22 03:45:25;;;;;;;5.60;2.20;;;;;;;9.70;100.00;101763.47;4999626;28;20579;-85
2022/05/22 03:47:50;;;;;;;9.10;3.37;;;;;;;11.02;100.00;101952.47;5003520;28;20472;-86
2022/05/22 03:50:16;;;;;;;9.23;2.70;;;;;;;10.97;100.00;101957.56;5001767;28;20217;-86
2022/05/22 03:52:43;;;;;;;7.63;2.77;;;;;;;10.88;100.00;101966.63;4995830;28;20731;-85
2022/05/22 03:55:11;;;;;;;7.57;3.03;;;;;;;10.45;100.00;101905.22;4998116;28;20684;-86
2022/05/22 03:57:37;;;;;;;6.80;2.90;;;;;;;10.98;100.00;101967.25;4991895;28;20459;-87
2022/05/22 04:00:05;;;;;;;5.00;2.60;;;;;;;10.85;100.00;101974.03;4992718;28;20443;-87
2022/05/22 04:02:31;;;;;;;6.57;3.50;;;;;;;10.84;100.00;101979.56;4986927;28;20264;-87
2022/05/22 04:04:56;;;;;;;5.33;2.60;;;;;;;10.05;100.00;101821.16;4994561;28;20443;-83
2022/05/22 04:07:21;;;;;;;6.13;2.80;;;;;;;9.77;100.00;101827.91;4992622;28;20195;-85
2022/05/22 04:09:47;;;;;;;5.40;2.63;;;;;;;9.92;100.00;101845.81;4989939;28;20189;-84
2022/05/22 04:12:13;;;;;;;5.67;3.13;;;;;;;10.07;100.00;101826.38;4988057;28;20209;-85
2022/05/22 04:14:39;;;;;;;4.77;3.23;;;;;;;10.86;100.00;101950.69;4991669;28;20589;-86
2022/05/22 04:17:04;;;;;;;7.07;3.30;;;;;;;9.18;100.00;101718.31;4995492;28;20444;-84
2022/05/22 04:19:31;;;;;;;7.17;3.40;;;;;;;10.01;100.00;101867.22;4991110;28;20456;-84
2022/05/22 04:21:57;;;;;;;7.37;2.93;;;;;;;10.51;100.00;101934.03;4994659;28;20205;-84
2022/05/22 04:27:07;;;;;;;9.30;3.47;;;;;;;10.43;100.00;101880.41;4991471;28;20199;-86
2022/05/22 04:29:34;;;;;;;7.67;2.80;;;;;;;10.15;100.00;101819.13;4994334;28;20436;-84
2022/05/22 04:31:59;;;;;;;8.47;2.80;;;;;;;10.09;100.00;101824.31;4995552;28;20681;-84
2022/05/22 04:34:25;;;;;;;7.70;3.23;;;;;;;10.65;100.00;101920.94;4997252;28;20510;-85
2022/05/22 04:36:50;;;;;;;6.17;2.90;;;;;;;10.69;100.00;101896.25;4996452;28;20232;-85
2022/05/22 04:39:16;;;;;;;6.17;2.90;;;;;;;10.65;100.00;101872.63;4993255;28;20239;-86
2022/05/22 04:41:41;;;;;;;8.10;3.20;;;;;;;11.12;100.00;101903.94;4994453;28;20225;-85
2022/05/22 04:44:06;;;;;;;7.30;3.30;;;;;;;10.88;100.00;101849.38;4994177;28;20762;-84
2022/05/22 04:46:32;;;;;;;8.53;3.40;;;;;;;10.78;100.00;101830.78;4993120;28;20196;-81
2022/05/22 04:48:58;;;;;;;9.57;3.23;;;;;;;11.23;100.00;101884.75;4995355;28;20202;-85
2022/05/22 04:51:23;;;;;;;11.10;3.50;;;;;;;11.63;100.00;101931.13;4994195;28;20228;-84
2022/05/22 04:53:50;;;;;;;5.90;2.73;;;;;;;11.90;100.00;101948.63;4995069;28;20231;-85
2022/05/22 04:56:15;;;;;;;5.73;2.90;;;;;;;9.89;100.00;101630.91;4994556;28;20263;-84
2022/05/22 04:58:40;;;;;;;9.90;3.83;;;;;;;10.55;100.00;101679.69;4993619;28;20458;-87
2022/05/22 05:01:07;;;;;;;6.20;3.20;;;;;;;12.09;100.00;101937.38;5000509;28;20208;-86
2022/05/22 05:03:33;;;;;;;10.67;3.60;;;;;;;10.40;100.00;101698.38;4995372;28;21574;-87
2022/05/22 05:05:59;;;;;;;10.73;3.63;;;;;;;12.09;100.00;101936.50;4996648;28;20464;-86
2022/05/22 05:08:26;;;;;;;6.63;2.90;;;;;;;10.94;100.00;101717.13;4996857;28;20197;-87
2022/05/22 05:10:52;;;;;;;12.53;4.77;;;;;;;12.42;100.00;101931.66;5000185;28;20240;-86
2022/05/22 05:13:19;;;;;;;9.90;3.40;;;;;;;12.39;100.00;101921.28;5000878;28;20472;-86
2022/05/22 05:15:44;;;;;;;6.53;3.10;;;;;;;11.51;100.00;101773.06;5001491;28;20428;-85
2022/05/22 05:18:10;;;;;;;9.83;3.60;;;;;;;12.55;100.00;101936.38;5006280;28;21120;-86
2022/05/22 05:20:37;;;;;;;12.63;4.20;;;;;;;11.24;100.00;101711.84;5007623;28;20186;-85
2022/05/22 05:23:06;;;;;;;9.57;3.63;;;;;;;11.69;100.00;101777.25;5001105;28;20185;-86
2022/05/22 05:25:31;;;;;;;10.87;3.57;;;;;;;11.83;100.00;101814.06;5004134;28;20823;-87
2022/05/22 05:27:57;;;;;;;13.20;3.70;;;;;;;11.39;100.00;101736.88;5005315;28;20470;-87
2022/05/22 05:30:22;;;;;;;11.13;3.03;;;;;;;11.98;100.00;101814.13;5007949;28;20231;-87
2022/05/22 05:32:54;;;;;;;9.10;3.17;;;;;;;12.55;100.00;101912.16;5000399;28;20237;-87
2022/05/22 05:35:19;;;;;;;5.37;2.93;;;;;;;11.86;100.00;101783.31;5005944;28;20181;-86
2022/05/22 05:37:46;;;;;;;9.30;3.30;;;;;;;12.56;100.00;101874.31;5006363;28;20451;-85
2022/05/22 05:40:12;;;;;;;11.07;2.93;;;;;;;12.88;100.00;101902.69;5003851;28;20217;-86
2022/05/22 05:42:38;;;;;;;9.00;3.03;;;;;;;11.34;100.00;101707.06;4999232;28;20530;-86
2022/05/22 05:45:09;;;;;;;6.40;2.47;;;;;;;12.75;100.00;101913.28;5001237;28;20636;-85
2022/05/22 05:47:35;;;;;;;11.80;3.77;;;;;;;12.69;100.00;101902.44;4999501;28;20437;-87
2022/05/22 05:50:00;;;;;;;9.00;2.40;;;;;;;12.22;100.00;101791.50;4996570;28;20824;-86
2022/05/22 05:52:26;;;;;;;6.50;2.73;;;;;;;12.13;100.00;101787.22;4991331;28;20302;-85
2022/05/22 05:54:51;;;;;;;9.80;3.10;;;;;;;12.14;100.00;101783.50;4997275;28;20335;-86
2022/05/22 05:57:17;;;;;;;7.83;2.10;;;;;;;13.09;100.00;101901.06;4998467;28;20186;-86
2022/05/22 05:59:43;;;;;;;8.27;2.57;;;;;;;11.93;100.00;101717.03;4994216;28;20330;-86
2022/05/22 06:02:13;;;;;;;9.70;2.43;;;;;;;13.04;100.00;101896.22;4998508;28;20568;-85
2022/05/22 06:04:39;;;;;;;8.10;2.67;;;;;;;12.36;100.00;101762.91;5001015;28;20214;-86
2022/05/22 06:07:05;;;;;;;10.43;2.00;;;;;;;13.04;100.00;101873.84;4999530;28;20471;-86
2022/05/22 06:09:31;;;;;;;5.30;1.90;;;;;;;13.37;100.00;101898.50;4997881;28;20446;-87
2022/05/22 06:11:56;;;;;;;9.23;2.30;;;;;;;12.97;100.00;101859.50;5000626;28;20562;-85
2022/05/22 06:14:21;;;;;;;10.13;2.43;;;;;;;13.39;100.00;101904.53;4995589;28;20194;-83
2022/05/22 06:16:47;;;;;;;5.70;1.90;;;;;;;12.21;100.00;101707.28;5003433;28;20196;-84
2022/05/22 06:19:12;;;;;;;9.83;2.60;;;;;;;12.82;100.00;101803.81;4999068;28;20200;-82
2022/05/22 06:21:38;;;;;;;8.13;2.40;;;;;;;12.59;100.00;101766.28;4996463;28;20950;-82
2022/05/22 06:24:04;;;;;;;8.23;2.67;;;;;;;12.67;100.00;101751.91;4996959;28;20239;-84
2022/05/22 06:26:29;;;;;;;10.10;4.70;;;;;;;12.52;100.00;101824.56;4999679;28;20204;-85
2022/05/22 06:28:55;;;;;;;9.97;4.47;;;;;;;12.85;100.00;101851.91;4995201;28;20192;-83
2022/05/22 06:31:20;;;;;;;9.77;3.80;;;;;;;12.73;100.00;101815.75;4997091;28;20215;-83
2022/05/22 06:33:46;;;;;;;8.63;4.50;;;;;;;12.07;100.00;101720.75;5000963;28;20637;-84
2022/05/22 06:36:14;;;;;;;13.20;4.03;;;;;;;12.38;100.00;101836.16;5002415;28;20185;-86
2022/05/22 06:41:24;;;;;;;13.27;4.60;;;;;;;13.46;100.00;101918.91;4997415;28;20605;-86
2022/05/22 06:43:51;;;;;;;9.60;4.90;;;;;;;13.40;100.00;101910.78;4995430;28;20467;-86
2022/05/22 06:46:25;;;;;;;11.33;4.20;;;;;;;13.14;100.00;101881.66;5003266;28;20192;-86
2022/05/22 06:48:51;;;;;;;9.20;4.03;;;;;;;13.12;100.00;101879.13;4999814;28;20423;-87
2022/05/22 06:51:17;;;;;;;9.80;4.63;;;;;;;12.46;100.00;101757.22;5002584;28;20470;-86
2022/05/22 06:53:42;;;;;;;6.77;3.50;;;;;;;13.12;100.00;101852.19;4995107;28;20237;-84
2022/05/22 06:56:07;;;;;;;10.90;3.70;;;;;;;13.22;100.00;101822.25;4993634;28;20272;-84
2022/05/22 06:58:33;;;;;;;10.30;3.67;;;;;;;12.28;100.00;101715.41;4992313;28;20197;-86
2022/05/22 07:00:58;;;;;;;8.50;3.90;;;;;;;12.09;100.00;101646.06;4999185;28;20216;-87
2022/05/22 07:03:24;;;;;;;6.60;3.50;;;;;;;12.41;100.00;101729.03;5000833;28;20200;-86
2022/05/22 07:05:49;;;;;;;12.00;3.63;;;;;;;11.88;100.00;101603.84;4998094;28;20196;-85
2022/05/22 07:08:15;;;;;;;4.77;2.97;;;;;;;13.26;100.00;101792.06;4996314;28;20190;-87
2022/05/22 07:13:24;;;;;;;7.80;2.90;;;;;;;13.59;100.00;101833.81;5000443;28;20224;-87
2022/05/22 07:16:05;;;;;;;11.70;4.30;;;;;;;13.68;100.00;101879.34;5002122;28;20425;-85
2022/05/22 07:18:30;;;;;;;8.93;3.40;;;;;;;14.00;100.00;101890.56;4998949;28;20247;-87
2022/05/22 07:20:56;;;;;;;13.13;3.87;;;;;;;12.08;100.00;101558.38;4999044;28;21007;-83
2022/05/22 07:23:21;;;;;;;12.63;4.37;;;;;;;13.23;100.00;101740.41;5000237;28;21161;-85
2022/05/22 07:25:47;;;;;;;14.40;4.00;;;;;;;13.95;100.00;101890.34;4992704;28;20197;-80
2022/05/22 07:28:12;;;;;;;9.57;3.80;;;;;;;13.66;100.00;101840.94;4994351;28;20228;-84
2022/05/22 07:30:38;;;;;;;9.30;2.47;;;;;;;13.63;100.00;101810.84;4997040;28;20200;-83
2022/05/22 07:33:03;;;;;;;7.43;2.63;;;;;;;13.74;100.00;101805.75;4996789;28;20682;-77
2022/05/22 07:35:29;;;;;;;7.13;2.50;;;;;;;14.13;100.00;101863.69;4994714;28;20207;-88
2022/05/22 07:37:55;;;;;;;4.93;1.57;;;;;;;14.13;100.00;101823.22;4999021;28;20188;-80
2022/05/22 07:40:20;;;;;;;6.23;2.00;;;;;;;13.90;100.00;101750.66;5002102;28;20885;-76
2022/05/22 07:42:45;;;;;;;6.00;2.03;;;;;;;14.52;100.00;101854.19;4997182;28;20475;-87
2022/05/22 07:45:14;;;;;;;6.63;2.00;;;;;;;13.94;100.00;101781.63;4997493;28;20185;-83
2022/05/22 07:47:39;;;;;;;3.90;1.60;;;;;;;14.10;100.00;101795.81;5003504;28;20188;-79
2022/05/22 07:50:17;;;;;;;7.23;2.17;;;;;;;14.49;100.00;101873.44;4994993;28;20444;-79
2022/05/22 07:52:44;;;;;;;9.63;2.97;;;;;;;13.89;100.00;101826.41;4987831;28;20452;-85
2022/05/22 07:55:14;;;;;;;6.77;2.60;;;;;;;14.11;100.00;101881.94;4996545;28;20464;-78
2022/05/22 07:57:43;;;;;;;6.17;2.80;;;;;;;14.37;100.00;101875.88;5007589;28;20436;-83
2022/05/22 08:00:11;;;;;;;4.30;2.13;;;;;;;14.18;100.00;101845.06;4994847;28;20531;-83
2022/05/22 08:02:36;;;;;;;7.47;1.97;;;;;;;14.11;100.00;101837.94;4994050;28;20474;-87
2022/05/22 08:05:02;;;;;;;10.70;3.47;;;;;;;14.26;100.00;101876.41;4998206;28;20433;-87
2022/05/22 08:07:28;;;;;;;5.67;1.90;;;;;;;13.83;100.00;101763.28;4998137;28;20186;-87
2022/05/22 08:09:53;;;;;;;4.80;1.93;;;;;;;14.47;100.00;101846.66;4996836;28;20997;-86
2022/05/22 08:12:18;;;;;;;4.47;1.80;;;;;;;14.58;100.00;101790.44;5015808;28;20208;-87
2022/05/22 08:14:47;;;;;;;7.63;3.13;;;;;;;15.00;100.00;101864.97;4994517;28;20219;-86
2022/05/22 08:17:12;;;;;;;4.73;1.77;;;;;;;14.94;100.00;101848.75;4995932;28;20186;-86
2022/05/22 08:19:37;;;;;;;6.20;1.63;;;;;;;14.64;100.00;101784.25;4995950;28;20806;-84
2022/05/22 08:22:03;;;;;;;2.80;1.60;;;;;;;14.29;100.00;101724.06;4998970;28;20201;-84
2022/05/22 08:24:29;;;;;;;5.53;2.27;;;;;;;15.22;100.00;101868.38;4994338;28;20173;-86
2022/05/22 08:26:54;;;;;;;7.47;2.50;;;;;;;14.15;100.00;101707.84;4995935;28;20979;-87
2022/05/22 08:29:20;;;;;;;7.13;2.03;;;;;;;14.38;100.00;101717.50;5001271;28;20195;-89
2022/05/22 08:31:48;;;;;;;11.70;2.97;;;;;;;14.82;100.00;101781.81;5003797;28;20343;-88
2022/05/22 08:34:14;;;;;;;5.13;2.30;;;;;;;14.46;100.00;101752.38;4999268;28;20189;-79
2022/05/22 08:36:40;;;;;;;4.83;2.13;;;;;;;13.86;100.00;101616.44;4998072;28;21023;-84
2022/05/22 08:39:06;;;;;;;4.37;2.17;;;;;;;14.88;100.00;101778.28;4999662;28;20244;-84
2022/05/22 08:41:40;;;;;;;9.20;2.97;;;;;;;15.19;100.00;101840.91;5000837;28;20451;-89
2022/05/22 08:44:11;;;;;;;11.33;3.13;;;;;;;15.11;100.00;101848.19;5002335;28;20177;-77
2022/05/22 08:46:49;;;;;;;7.90;2.83;;;;;;;15.02;100.00;101822.38;5004959;28;20446;-88
2022/05/22 08:49:22;;;;;;;7.00;2.60;;;;;;;15.22;100.00;101843.22;5007868;28;20436;-83
2022/05/22 08:51:51;;;;;;;6.67;2.60;;;;;;;14.27;100.00;101709.97;5003188;28;20459;-90
2022/05/22 08:55:03;;;;;;;5.87;2.23;;;;;;;15.22;100.00;101829.72;5008707;28;20439;-85
2022/05/22 09:00:26;;;;;;;4.90;2.00;;;;;;;15.09;100.00;101706.22;4999363;28;20833;-84
2022/05/22 09:03:05;;;;;;;5.57;1.80;;;;;;;15.93;100.00;101829.13;4996175;28;20441;-87
2022/05/22 09:05:33;;;;;;;9.97;2.27;;;;;;;15.93;100.00;101839.94;4997081;28;20444;-84
2022/05/22 09:08:29;;;;;;;14.20;3.20;;;;;;;15.69;100.00;101838.72;4998949;28;20435;-90
2022/05/22 09:11:05;;;;;;;16.90;3.37;;;;;;;15.48;100.00;101831.63;4984400;28;20456;-92
2022/05/22 09:13:36;;;;;;;5.30;2.57;;;;;;;15.14;100.00;101836.13;5009358;28;20490;-85
2022/05/22 09:16:13;;;;;;;9.67;2.57;;;;;;;15.54;100.00;101826.19;5001251;28;20459;-84
2022/05/22 09:18:56;;;;;;;6.93;2.63;;;;;;;15.74;100.00;101820.00;5002749;28;20428;-79
2022/05/22 09:21:40;;;;;;;4.83;1.77;;;;;;;15.92;100.00;101822.88;5001846;28;20550;-81
2022/05/22 09:24:16;;;;;;;7.03;2.80;;;;;;;14.53;100.00;101639.06;5002508;28;21022;-82
2022/05/22 09:26:41;;;;;;;10.23;2.60;;;;;;;15.58;100.00;101830.13;5003293;28;20420;-81
2022/05/22 09:29:19;;;;;;;7.70;2.83;;;;;;;15.50;100.00;101824.09;4999400;28;20620;-82
2022/05/22 09:32:09;;;;;;;7.13;2.50;;;;;;;15.93;100.00;101824.53;5014293;28;20405;-83
2022/05/22 09:34:43;;;;;;;7.63;2.13;;;;;;;15.18;100.00;101701.44;5004518;28;20438;-81
2022/05/22 09:37:49;;;;;;;7.83;3.00;;;;;;;15.73;100.00;101812.91;5006488;28;20424;-82
2022/05/22 09:40:28;;;;;;;7.70;1.80;;;;;;;15.61;100.00;101780.22;4943372;28;20573;-83
2022/05/22 09:43:28;;;;;;;7.00;2.23;;;;;;;16.09;100.00;101808.91;5014919;23;20500;-83
2022/05/22 09:46:18;;;;;;;6.10;2.53;;;;;;;16.18;100.00;101808.47;5008368;28;20450;-83
2022/05/22 09:49:05;;;;;;;5.70;2.40;;;;;;;16.20;100.00;101810.94;5009297;28;20820;-83
2022/05/22 09:51:48;;;;;;;5.47;1.93;;;;;;;15.98;100.00;101813.09;5010959;28;20432;-82
2022/05/22 09:54:24;;;;;;;9.17;3.10;;;;;;;15.92;100.00;101785.00;5004749;28;20573;-82
2022/05/22 09:57:10;;;;;;;7.07;2.60;;;;;;;15.95;100.00;101783.75;5009560;28;20454;-82
2022/05/22 09:59:36;;;;;;;4.97;2.43;;;;;;;16.78;100.00;101810.97;5001070;28;20947;-82
2022/05/22 10:02:18;;;;;;;8.50;2.87;;;;;;;16.69;100.00;101802.25;5000387;28;20468;-79
2022/05/22 10:05:21;;;;;;;4.37;1.97;;;;;;;16.93;100.00;101797.97;4994245;28;20196;-80
2022/05/22 10:07:58;;;;;;;5.87;1.87;;;;;;;16.52;100.00;101760.44;5008179;28;20436;-81
2022/05/22 10:10:58;;;;;;;4.00;1.47;;;;;;;16.97;100.00;101754.16;5009621;28;20518;-81
2022/05/22 10:13:54;;;;;;;4.13;1.80;;;;;;;16.76;100.00;101779.69;4989226;28;20487;-82
2022/05/22 10:16:42;;;;;;;5.83;1.60;;;;;;;16.79;100.00;101773.88;5009591;28;21319;-82
2022/05/22 10:19:14;;;;;;;5.07;1.77;;;;;;;16.34;100.00;101709.69;4999101;28;20472;-74
2022/05/22 10:22:05;;;;;;;4.90;1.50;;;;;;;16.46;100.00;101705.28;5010550;28;20440;-81
2022/05/22 10:24:46;;;;;;;5.70;2.20;;;;;;;17.09;100.00;101764.06;5009360;28;20861;-83
2022/05/22 10:27:24;;;;;;;6.00;1.83;;;;;;;16.96;100.00;101755.22;5015307;28;20880;-84
2022/05/22 10:29:58;;;;;;;4.87;2.00;;;;;;;17.25;100.00;101757.28;4998621;28;20978;-84
2022/05/22 10:32:33;;;;;;;4.00;1.40;;;;;;;16.94;100.00;101722.91;5025167;28;20753;-82
2022/05/22 10:35:11;;;;;;;5.13;1.60;;;;;;;16.94;100.00;101745.41;5005195;28;20446;-83
2022/05/22 10:37:50;;;;;;;3.37;1.40;;;;;;;17.28;100.00;101746.00;5008533;28;21040;-82
2022/05/22 10:40:19;;;;;;;4.10;1.67;;;;;;;16.98;100.00;101743.13;5008730;28;20439;-85
2022/05/22 10:42:48;;;;;;;6.13;1.60;;;;;;;16.99;100.00;101695.16;4999990;28;21320;-83
2022/05/22 10:45:26;;;;;;;4.70;1.30;;;;;;;17.36;100.00;101734.06;5010027;28;20427;-81
2022/05/22 10:47:53;;;;;;;5.00;1.27;;;;;;;16.99;100.00;101662.63;5009288;28;20430;-83
2022/05/22 10:50:27;;;;;;;3.33;1.17;;;;;;;17.44;100.00;101725.63;5003061;28;20822;-86
2022/05/22 10:52:54;;;;;;;5.63;1.60;;;;;;;17.14;100.00;101682.09;5009179;28;20463;-83
2022/05/22 10:55:43;;;;;;;2.23;1.20;;;;;;;17.84;100.00;101727.97;5003026;28;20454;-86
2022/05/22 10:58:26;;;;;;;4.60;2.23;;;;;;;17.75;100.00;101719.25;5006740;28;20444;-85
2022/05/22 11:00:57;;;;;;;6.90;1.80;;;;;;;17.35;100.00;101648.31;5008135;28;20412;-90
2022/05/22 11:03:32;;;;;;;3.87;1.37;;;;;;;17.39;100.00;101615.13;5007136;28;20965;-85
2022/05/22 11:06:02;;;;;;;6.30;1.43;;;;;;;18.10;100.00;101693.44;5001840;28;20451;-83
2022/05/22 11:08:34;;;;;;;3.90;1.17;;;;;;;18.24;100.00;101698.47;5003644;28;20444;-77
2022/05/22 11:11:19;;;;;;;3.97;1.30;;;;;;;18.36;100.00;101700.41;5008644;28;20451;-82
2022/05/22 11:13:45;;;;;;;3.23;1.03;;;;;;;17.75;100.00;101580.06;5002828;28;21076;-84
2022/05/22 11:16:26;;;;;;;5.40;1.17;;;;;;;18.21;100.00;101698.09;5070145;27;21277;-82
2022/05/22 11:19:25;;;;;;;6.57;1.20;;;;;;;18.31;100.00;101684.78;5069733;28;20447;-82
2022/05/22 11:22:30;;;;;;;2.60;1.00;;;;;;;18.28;100.00;101702.38;5057727;28;20543;-80
2022/05/22 11:25:14;;;;;;;4.20;1.20;;;;;;;17.97;100.00;101654.53;5067690;28;21016;-80
2022/05/22 11:28:17;;;;;;;4.90;1.40;;;;;;;18.10;100.00;101696.97;5075396;28;20435;-81
2022/05/22 11:31:12;;;;;;;3.03;1.20;;;;;;;17.84;100.00;101658.22;5083929;28;20447;-80
2022/05/22 11:34:03;;;;;;;4.03;1.10;;;;;;;18.05;100.00;101705.81;5081454;28;20448;-82
2022/05/22 11:37:02;;;;;;;5.17;1.40;;;;;;;17.92;100.00;101697.81;5077348;28;20433;-82
2022/05/22 11:39:42;;;;;;;4.67;1.63;;;;;;;17.67;100.00;101657.16;5082904;28;20831;-82
2022/05/22 11:42:19;;;;;;;3.87;1.47;;;;;;;18.25;100.00;101694.69;5081818;28;20448;-80
2022/05/22 11:44:54;;;;;;;5.43;1.50;;;;;;;18.23;100.00;101696.81;5079415;28;20475;-80
2022/05/22 11:47:22;;;;;;;3.40;1.40;;;;;;;18.27;100.00;101686.31;5078204;28;20463;-80
2022/05/22 11:49:56;;;;;;;8.57;1.97;;;;;;;18.24;100.00;101651.47;5079673;28;20442;-79